Bow Pilot — S6EN — position and weather

sailwx.info

Track history (hours):
 
Tides and Currents Weather Stations Pressure Air Temp Water Temp Dewpoint Dewpoint Depression Visibility Wind Speed Wind Dir Waves Ship Positions

Bow Pilot

Last reported at 2014-Sep-15 20:22 UTC. Time now 2014-Sep-16 00:53 UTC.
Position N 51°57' E 003°42'.

Length 104 m; draft 6 m.

Type: Ship. MMSI: 564978000.

Date/timePositionNaut miles runAvg speedWind from/ knotsBaromVisibWave heightAir tempDewpointWater temp
2014-Sep-15 20:22N 51°57' E 003°42'0 0.0
2014-Sep-15 05:10N 51°57' E 003°42'26 0.5
2014-Sep-13 03:33N 52°13' E 003°10'425 9.4
2014-Sep-11 06:09N 57°42' E 010°60'6 9.7
2014-Sep-11 05:33N 57°37' E 011°08'10 9.6
2014-Sep-11 04:33N 57°30' E 011°20'10 9.6
2014-Sep-11 03:34N 57°22' E 011°29'1110.1
2014-Sep-11 02:29N 57°12' E 011°36'1110.4
2014-Sep-11 01:27N 57°02' E 011°43'910.4
2014-Sep-11 00:34N 56°53' E 011°49'1010.0
2014-Sep-10 23:34N 56°44' E 011°55'10 9.6
2014-Sep-10 22:32N 56°34' E 011°59'9 9.5
2014-Sep-10 21:33N 56°25' E 012°01'10 9.5
2014-Sep-10 20:33N 56°16' E 012°09'1010.1
2014-Sep-10 19:34N 56°11' E 012°24'9 9.4
2014-Sep-10 18:34N 56°05' E 012°37'8 8.2
2014-Sep-10 17:33N 55°58' E 012°43'1111.2
2014-Sep-10 16:34N 55°46' E 012°42'6 6.0
2014-Sep-10 15:31N 55°41' E 012°38'0 0.0
2014-Sep-10 14:31N 55°41' E 012°38'0 0.0
2014-Sep-10 13:31N 55°41' E 012°38'0 0.0
2014-Sep-10 12:31N 55°41' E 012°38'0 0.0
2014-Sep-10 11:31N 55°41' E 012°38'0 0.0
2014-Sep-10 10:28N 55°41' E 012°38'0 0.0
2014-Sep-10 09:31N 55°41' E 012°38'0 0.0
2014-Sep-10 08:31N 55°41' E 012°38'0 0.0
2014-Sep-10 07:31N 55°41' E 012°38'0 0.0
2014-Sep-10 06:31N 55°41' E 012°38'0 0.0
2014-Sep-10 05:31N 55°41' E 012°38'0 0.0
2014-Sep-10 04:31N 55°41' E 012°38'0 0.0
2014-Sep-10 03:31N 55°41' E 012°38'0 0.0
2014-Sep-10 02:31N 55°41' E 012°38'0 0.0
2014-Sep-10 01:31N 55°41' E 012°38'0 0.0
2014-Sep-10 00:31N 55°41' E 012°38'0 0.0
2014-Sep-09 23:31N 55°41' E 012°38'0 0.0
2014-Sep-09 22:31N 55°41' E 012°38'0 0.0
2014-Sep-09 21:31N 55°41' E 012°38'0 0.0
2014-Sep-09 20:31N 55°41' E 012°38'0 0.0
2014-Sep-09 19:31N 55°41' E 012°38'0 0.0
2014-Sep-09 18:31N 55°41' E 012°38'0 0.0
2014-Sep-09 17:31N 55°41' E 012°38'0 0.0
2014-Sep-09 16:31N 55°41' E 012°38'1 0.9
2014-Sep-09 15:33N 55°41' E 012°38'1312.6
2014-Sep-09 14:34N 55°54' E 012°39'1413.7
2014-Sep-09 13:33N 56°07' E 012°31'1312.8
2014-Sep-09 12:33N 56°14' E 012°12'174 4.7
2014-Sep-07 23:31N 53°55' E 009°11'10 4.8
2014-Sep-07 21:33N 53°51' E 008°56'1514.3
2014-Sep-07 20:31N 53°58' E 008°34'1814.5
2014-Sep-07 19:14N 53°58' E 008°02'8214.1
2014-Sep-07 13:27N 53°39' E 005°48'1112.8
2014-Sep-07 12:33N 53°35' E 005°30'1212.4
2014-Sep-07 11:33N 53°31' E 005°10'1412.2
2014-Sep-07 10:26N 53°25' E 004°49'15116.5
2014-Sep-07 01:18N 51°27' E 002°14'4 4.6
2014-Sep-07 00:25N 51°24' E 002°11'0 0.4
2014-Sep-06 23:30N 51°23' E 002°11'6 6.0
2014-Sep-06 22:33N 51°18' E 002°07'1615.9
2014-Sep-06 21:33N 51°08' E 001°48'4715.4
2014-Sep-06 18:30N 50°31' E 001°02'1415.0
2014-Sep-06 17:33N 50°25' E 000°42'1515.0
2014-Sep-06 16:33N 50°21' E 000°19'  
Track history (hours):
 
Tides and Currents Weather Stations Pressure Air Temp Water Temp Dewpoint Dewpoint Depression Visibility Wind Speed Wind Dir Waves Ship Positions

Bow Pilot

Last reported at 2014-Sep-15 20:22 UTC. Time now 2014-Sep-16 00:53 UTC.
Position N 51°57' E 003°42'.

Length 104 m; draft 6 m.

Type: Ship. MMSI: 564978000.

Date/timePositionNaut miles runAvg speedWind from/ knotsBaromVisibWave heightAir tempDewpointWater temp
2014-Sep-15 20:22N 51°57' E 003°42'0 0.0
2014-Sep-15 05:10N 51°57' E 003°42'26 0.5
2014-Sep-13 03:33N 52°13' E 003°10'425 9.4
2014-Sep-11 06:09N 57°42' E 010°60'6 9.7
2014-Sep-11 05:33N 57°37' E 011°08'10 9.6
2014-Sep-11 04:33N 57°30' E 011°20'10 9.6
2014-Sep-11 03:34N 57°22' E 011°29'1110.1
2014-Sep-11 02:29N 57°12' E 011°36'1110.4
2014-Sep-11 01:27N 57°02' E 011°43'910.4
2014-Sep-11 00:34N 56°53' E 011°49'1010.0
2014-Sep-10 23:34N 56°44' E 011°55'10 9.6
2014-Sep-10 22:32N 56°34' E 011°59'9 9.5
2014-Sep-10 21:33N 56°25' E 012°01'10 9.5
2014-Sep-10 20:33N 56°16' E 012°09'1010.1
2014-Sep-10 19:34N 56°11' E 012°24'9 9.4
2014-Sep-10 18:34N 56°05' E 012°37'8 8.2
2014-Sep-10 17:33N 55°58' E 012°43'1111.2
2014-Sep-10 16:34N 55°46' E 012°42'6 6.0
2014-Sep-10 15:31N 55°41' E 012°38'0 0.0
2014-Sep-10 14:31N 55°41' E 012°38'0 0.0
2014-Sep-10 13:31N 55°41' E 012°38'0 0.0
2014-Sep-10 12:31N 55°41' E 012°38'0 0.0
2014-Sep-10 11:31N 55°41' E 012°38'0 0.0
2014-Sep-10 10:28N 55°41' E 012°38'0 0.0
2014-Sep-10 09:31N 55°41' E 012°38'0 0.0
2014-Sep-10 08:31N 55°41' E 012°38'0 0.0
2014-Sep-10 07:31N 55°41' E 012°38'0 0.0
2014-Sep-10 06:31N 55°41' E 012°38'0 0.0
2014-Sep-10 05:31N 55°41' E 012°38'0 0.0
2014-Sep-10 04:31N 55°41' E 012°38'0 0.0
2014-Sep-10 03:31N 55°41' E 012°38'0 0.0
2014-Sep-10 02:31N 55°41' E 012°38'0 0.0
2014-Sep-10 01:31N 55°41' E 012°38'0 0.0
2014-Sep-10 00:31N 55°41' E 012°38'0 0.0
2014-Sep-09 23:31N 55°41' E 012°38'0 0.0
2014-Sep-09 22:31N 55°41' E 012°38'0 0.0
2014-Sep-09 21:31N 55°41' E 012°38'0 0.0
2014-Sep-09 20:31N 55°41' E 012°38'0 0.0
2014-Sep-09 19:31N 55°41' E 012°38'0 0.0
2014-Sep-09 18:31N 55°41' E 012°38'0 0.0
2014-Sep-09 17:31N 55°41' E 012°38'0 0.0
2014-Sep-09 16:31N 55°41' E 012°38'1 0.9
2014-Sep-09 15:33N 55°41' E 012°38'1312.6
2014-Sep-09 14:34N 55°54' E 012°39'1413.7
2014-Sep-09 13:33N 56°07' E 012°31'1312.8
2014-Sep-09 12:33N 56°14' E 012°12'174 4.7
2014-Sep-07 23:31N 53°55' E 009°11'10 4.8
2014-Sep-07 21:33N 53°51' E 008°56'1514.3
2014-Sep-07 20:31N 53°58' E 008°34'1814.5
2014-Sep-07 19:14N 53°58' E 008°02'8214.1
2014-Sep-07 13:27N 53°39' E 005°48'1112.8
2014-Sep-07 12:33N 53°35' E 005°30'1212.4
2014-Sep-07 11:33N 53°31' E 005°10'1412.2
2014-Sep-07 10:26N 53°25' E 004°49'15116.5
2014-Sep-07 01:18N 51°27' E 002°14'4 4.6
2014-Sep-07 00:25N 51°24' E 002°11'0 0.4
2014-Sep-06 23:30N 51°23' E 002°11'6 6.0
2014-Sep-06 22:33N 51°18' E 002°07'1615.9
2014-Sep-06 21:33N 51°08' E 001°48'4715.4
2014-Sep-06 18:30N 50°31' E 001°02'1415.0
2014-Sep-06 17:33N 50°25' E 000°42'1515.0
2014-Sep-06 16:33N 50°21' E 000°19'  

Dump ship's entire track history